Time;durP1;ratioP1;P1;durP2;ratioP2;P2;SDS_P1;SDS_P2;PMS_P1;PMS_P2;Temp;Humidity;BMP_temperature;BMP_pressure;BME280_temperature;BME280_humidity;BME280_pressure;Samples;Min_cycle;Max_cycle;Signal;HPM_P1;HPM_P2
2021/12/25 00:00:58;;;;;;;5.55;2.45;;;;;;;-4.46;100.00;97505.41;4307406;33;20037;-73
2021/12/25 00:03:26;;;;;;;3.17;1.75;;;;;;;-4.39;100.00;97521.22;4303618;33;20074;-77
2021/12/25 00:05:53;;;;;;;0.50;0.50;;;;;;;-4.42;100.00;97534.75;4296147;33;20104;-73
2021/12/25 00:08:24;;;;;;;4.90;2.03;;;;;;;-4.75;100.00;97480.94;4311341;33;20402;-73
2021/12/25 00:10:52;;;;;;;2.78;1.95;;;;;;;-4.50;100.00;97546.22;4310536;33;20356;-74
2021/12/25 00:13:19;;;;;;;4.55;2.65;;;;;;;-4.42;100.00;97525.06;4305949;33;20062;-74
2021/12/25 00:15:51;;;;;;;4.55;2.10;;;;;;;-4.45;100.00;97543.81;4305257;33;20065;-73
2021/12/25 00:18:19;;;;;;;7.43;3.83;;;;;;;-4.56;100.00;97537.28;4304701;33;20073;-73
2021/12/25 00:20:46;;;;;;;5.37;3.17;;;;;;;-4.44;100.00;97550.69;4305765;33;20041;-73
2021/12/25 00:23:13;;;;;;;6.20;2.60;;;;;;;-4.39;100.00;97558.84;4297621;33;20096;-75
2021/12/25 00:25:52;;;;;;;7.80;1.58;;;;;;;-4.42;100.00;97569.72;4310722;33;20036;-74
2021/12/25 00:36:05;;;;;;;1.62;1.27;;;;;;;-5.08;100.00;97605.84;4312616;33;20948;-74
2021/12/25 00:38:31;;;;;;;1.92;0.88;;;;;;;-5.24;100.00;97606.88;4312602;33;20052;-74
2021/12/25 00:40:58;;;;;;;1.27;0.90;;;;;;;-5.42;100.00;97630.87;4311227;33;20049;-75
2021/12/25 00:43:25;;;;;;;0.85;0.68;;;;;;;-5.53;100.00;97661.78;4311437;33;20045;-73
2021/12/25 00:45:52;;;;;;;3.17;1.40;;;;;;;-5.63;100.00;97649.94;4313413;33;20045;-73
2021/12/25 00:48:19;;;;;;;3.12;1.60;;;;;;;-5.68;100.00;97653.94;4312249;33;20061;-73
2021/12/25 00:50:45;;;;;;;1.23;1.05;;;;;;;-5.82;100.00;97646.03;4311393;33;20087;-75
2021/12/25 00:53:12;;;;;;;8.02;1.33;;;;;;;-6.32;100.00;97617.66;4310352;33;20045;-75
2021/12/25 00:55:38;;;;;;;1.25;0.98;;;;;;;-6.12;100.00;97694.00;4312807;33;20065;-74
2021/12/25 00:58:06;;;;;;;3.45;1.50;;;;;;;-6.25;100.00;97668.37;4312391;33;20067;-75
2021/12/25 01:00:33;;;;;;;3.55;2.10;;;;;;;-6.29;100.00;97682.00;4313017;33;20394;-75
2021/12/25 01:02:59;;;;;;;1.35;1.25;;;;;;;-6.61;100.00;97637.53;4313033;33;20048;-74
2021/12/25 01:05:26;;;;;;;4.53;1.58;;;;;;;-6.77;100.00;97658.59;4311080;33;20066;-75
2021/12/25 01:07:53;;;;;;;2.47;2.05;;;;;;;-6.51;100.00;97699.34;4312095;33;20083;-74
2021/12/25 01:10:22;;;;;;;2.30;1.75;;;;;;;-6.52;100.00;97708.22;4312916;33;20045;-73
2021/12/25 01:15:23;;;;;;;2.03;1.25;;;;;;;-6.47;100.00;97701.44;4309479;33;20084;-75
2021/12/25 01:23:58;;;;;;;1.37;0.98;;;;;;;-6.64;100.00;97711.19;4311888;33;20062;-73
2021/12/25 01:37:39;;;;;;;6.35;2.15;;;;;;;-7.11;100.00;97704.22;4310140;33;20355;-75
2021/12/25 01:40:43;;;;;;;2.35;1.17;;;;;;;-6.77;100.00;97752.81;4311749;33;20381;-74
2021/12/25 01:48:41;;;;;;;3.55;2.12;;;;;;;-6.98;100.00;97756.84;4297608;33;20098;-73
2021/12/25 01:51:09;;;;;;;9.95;1.45;;;;;;;-6.96;100.00;97767.94;4284381;33;20073;-74
2021/12/25 01:53:36;;;;;;;1.05;0.85;;;;;;;-7.37;100.00;97718.38;4295687;33;20025;-73
2021/12/25 01:56:04;;;;;;;5.18;1.40;;;;;;;-7.42;100.00;97727.69;4294885;33;20049;-73
2021/12/25 01:58:33;;;;;;;2.65;1.27;;;;;;;-7.40;100.00;97731.78;4307791;33;20082;-74
2021/12/25 02:01:02;;;;;;;9.15;0.85;;;;;;;-7.13;100.00;97785.50;4311635;33;20028;-74
2021/12/25 02:03:30;;;;;;;1.52;0.90;;;;;;;-7.16;100.00;97800.72;4311384;33;20045;-73
2021/12/25 02:05:59;;;;;;;3.67;1.20;;;;;;;-7.28;100.00;97802.84;4310079;33;20037;-74
2021/12/25 02:08:27;;;;;;;3.40;0.77;;;;;;;-7.30;100.00;97804.84;4297924;33;20066;-73
2021/12/25 02:10:55;;;;;;;0.80;0.80;;;;;;;-7.35;100.00;97802.72;4311900;33;20036;-73
2021/12/25 02:13:22;;;;;;;5.60;1.50;;;;;;;-7.64;100.00;97771.88;4311365;33;20055;-72
2021/12/25 02:15:52;;;;;;;0.80;0.80;;;;;;;-7.36;100.00;97811.53;4296884;33;20028;-74
2021/12/25 02:21:12;;;;;;;2.03;0.73;;;;;;;-7.44;100.00;97823.81;4309405;33;20036;-74
2021/12/25 02:23:40;;;;;;;2.95;1.12;;;;;;;-7.80;100.00;97772.69;4309559;33;20033;-73
2021/12/25 02:26:07;;;;;;;2.87;0.88;;;;;;;-7.55;100.00;97828.37;4311278;33;20348;-73
2021/12/25 02:28:34;;;;;;;3.47;1.25;;;;;;;-7.48;100.00;97839.00;4311682;33;20041;-73
2021/12/25 02:31:06;;;;;;;6.80;1.20;;;;;;;-7.78;100.00;97786.41;4297008;33;20036;-73
2021/12/25 02:33:34;;;;;;;14.27;1.03;;;;;;;-7.52;100.00;97832.47;4296478;33;20033;-73
2021/12/25 02:36:01;;;;;;;1.23;1.10;;;;;;;-7.63;100.00;97830.19;4310559;33;20048;-73
2021/12/25 02:38:28;;;;;;;3.87;1.52;;;;;;;-7.91;100.00;97791.31;4311230;33;20516;-73
2021/12/25 02:40:55;;;;;;;2.58;1.12;;;;;;;-7.62;100.00;97858.78;4311684;33;20412;-74
2021/12/25 02:43:22;;;;;;;6.25;1.08;;;;;;;-8.00;100.00;97802.72;4310338;33;20159;-75
2021/12/25 02:46:01;;;;;;;3.65;1.25;;;;;;;-7.75;100.00;97864.50;4311274;33;20170;-73
2021/12/25 02:48:28;;;;;;;5.05;1.45;;;;;;;-7.74;100.00;97884.41;4310911;33;20370;-73
2021/12/25 02:50:55;;;;;;;5.40;1.10;;;;;;;-7.82;100.00;97858.25;4311563;33;20467;-73
2021/12/25 02:53:22;;;;;;;2.25;1.83;;;;;;;-7.76;100.00;97882.94;4309167;33;20472;-74
2021/12/25 02:55:49;;;;;;;5.45;1.33;;;;;;;-8.13;100.00;97832.75;4310410;33;20203;-72
2021/12/25 02:58:19;;;;;;;2.37;0.90;;;;;;;-8.04;100.00;97844.84;4311183;33;20070;-75
2021/12/25 03:01:01;;;;;;;3.12;1.58;;;;;;;-7.84;100.00;97886.34;4296689;33;20033;-73
2021/12/25 03:03:28;;;;;;;2.75;1.67;;;;;;;-7.81;100.00;97895.69;4309674;33;20375;-72
2021/12/25 03:05:54;;;;;;;2.78;1.87;;;;;;;-8.13;100.00;97845.78;4311348;33;20052;-72
2021/12/25 03:08:21;;;;;;;7.75;1.98;;;;;;;-7.87;100.00;97897.13;4309536;33;20028;-73
2021/12/25 03:10:50;;;;;;;3.90;1.42;;;;;;;-7.90;100.00;97905.28;4310257;33;20447;-73
2021/12/25 03:16:10;;;;;;;1.55;0.88;;;;;;;-8.29;100.00;97861.44;4310606;33;20191;-73
2021/12/25 03:18:45;;;;;;;9.13;2.08;;;;;;;-7.97;100.00;97912.13;4298343;33;20036;-74
2021/12/25 03:21:13;;;;;;;9.43;1.02;;;;;;;-7.94;100.00;97914.44;4310319;33;20394;-73
2021/12/25 03:23:41;;;;;;;2.40;1.40;;;;;;;-8.18;100.00;97882.03;4311226;33;20449;-73
2021/12/25 03:26:08;;;;;;;4.30;1.60;;;;;;;-8.00;100.00;97921.09;4310720;33;20097;-73
2021/12/25 03:28:39;;;;;;;4.00;1.70;;;;;;;-8.09;100.00;97909.81;4310611;33;20062;-73
2021/12/25 03:31:15;;;;;;;1.95;1.45;;;;;;;-8.07;100.00;97907.84;4297009;33;20167;-74
2021/12/25 03:33:43;;;;;;;7.80;1.15;;;;;;;-8.00;100.00;97915.06;4310085;33;20051;-74
2021/12/25 03:36:10;;;;;;;3.60;1.45;;;;;;;-8.11;100.00;97922.19;4310606;33;20066;-73
2021/12/25 03:38:37;;;;;;;4.03;1.65;;;;;;;-8.21;100.00;97911.06;4307310;33;20045;-74
2021/12/25 03:41:06;;;;;;;3.83;1.23;;;;;;;-8.30;100.00;97906.78;4309756;33;20045;-74
2021/12/25 03:43:37;;;;;;;5.18;1.48;;;;;;;-8.52;100.00;97877.69;4297544;33;20061;-74
2021/12/25 03:46:06;;;;;;;3.60;1.52;;;;;;;-8.25;100.00;97938.47;4310730;33;20045;-75
2021/12/25 03:59:18;;;;;;;3.10;1.10;;;;;;;-8.60;100.00;97911.56;4310409;33;20366;-73
2021/12/25 04:01:52;;;;;;;2.85;1.02;;;;;;;-8.40;100.00;97946.88;4309405;33;20044;-74
2021/12/25 04:04:26;;;;;;;4.70;1.62;;;;;;;-8.39;100.00;97955.56;4290905;33;20095;-74
2021/12/25 04:07:53;;;;;;;2.75;1.62;;;;;;;-8.40;100.00;97946.88;4309681;33;20051;-73
2021/12/25 04:09:48;;;;;;;2.35;1.30;;;;;;;-8.33;100.00;97969.78;4306592;33;20055;-73
2021/12/25 04:12:17;;;;;;;3.50;1.00;;;;;;;-8.44;100.00;97963.06;4309424;33;20092;-73
2021/12/25 04:14:43;;;;;;;5.00;1.50;;;;;;;-8.47;100.00;97969.41;4308985;33;20060;-74
2021/12/25 04:17:10;;;;;;;1.12;0.90;;;;;;;-8.45;100.00;97972.69;4310817;33;20028;-74
2021/12/25 04:19:37;;;;;;;2.78;0.75;;;;;;;-8.45;100.00;97972.69;4294675;33;20032;-74
2021/12/25 04:22:14;;;;;;;3.95;1.42;;;;;;;-8.52;100.00;97969.06;4310898;33;20044;-75
2021/12/25 04:24:44;;;;;;;5.32;1.37;;;;;;;-8.47;100.00;97979.84;4312863;33;20422;-76
2021/12/25 04:27:14;;;;;;;2.60;1.37;;;;;;;-8.52;100.00;97976.91;4298974;33;20405;-75
2021/12/25 04:29:48;;;;;;;3.30;1.15;;;;;;;-8.49;100.00;97981.78;4295322;33;20025;-75
2021/12/25 04:49:26;;;;;;;0.70;0.70;;;;;;;-8.49;100.00;98005.28;4313243;33;20098;-74
2021/12/25 05:05:38;;;;;;;4.57;1.92;;;;;;;-8.80;100.00;98031.81;4311840;33;20051;-74
2021/12/25 05:08:04;;;;;;;1.80;1.35;;;;;;;-8.90;100.00;98031.09;4311426;33;20041;-76
2021/12/25 05:10:31;;;;;;;9.10;2.15;;;;;;;-8.84;100.00;98030.50;4311736;33;20370;-76
2021/12/25 05:12:59;;;;;;;4.70;1.55;;;;;;;-8.85;100.00;98031.47;4311824;33;20423;-74
2021/12/25 05:15:26;;;;;;;0.30;0.30;;;;;;;-8.90;100.00;98025.88;4311260;33;20339;-73
2021/12/25 05:17:53;;;;;;;6.97;1.77;;;;;;;-8.94;100.00;98029.75;4311470;33;20062;-73
2021/12/25 05:20:20;;;;;;;3.65;2.20;;;;;;;-8.93;100.00;98030.56;4308997;33;20055;-73
2021/12/25 05:22:47;;;;;;;3.42;1.52;;;;;;;-9.19;100.00;97990.44;4310905;33;20071;-74
2021/12/25 05:25:15;;;;;;;3.87;1.27;;;;;;;-8.95;100.00;98036.75;4313440;33;20040;-73
2021/12/25 05:27:46;;;;;;;1.33;1.10;;;;;;;-9.32;100.00;97982.97;4315252;33;20032;-74
2021/12/25 05:30:13;;;;;;;4.62;1.75;;;;;;;-8.96;100.00;98047.34;4311362;33;20374;-75
2021/12/25 05:32:40;;;;;;;2.12;1.37;;;;;;;-9.36;100.00;97988.63;4312545;33;20079;-73
2021/12/25 05:35:08;;;;;;;4.07;1.90;;;;;;;-9.19;100.00;98039.12;4314272;33;20066;-73
2021/12/25 05:37:34;;;;;;;4.00;1.95;;;;;;;-9.20;100.00;98043.53;4314620;33;20033;-74
2021/12/25 05:40:04;;;;;;;2.28;1.35;;;;;;;-9.10;100.00;98060.91;4314359;33;20401;-74
2021/12/25 05:42:31;;;;;;;11.00;1.75;;;;;;;-9.37;100.00;98026.09;4309904;33;20062;-74
2021/12/25 05:44:59;;;;;;;8.63;1.75;;;;;;;-9.17;100.00;98071.94;4312009;33;20065;-74
2021/12/25 05:47:27;;;;;;;3.95;1.37;;;;;;;-9.46;100.00;98032.19;4312290;33;20025;-73
2021/12/25 05:49:55;;;;;;;7.70;2.17;;;;;;;-9.22;100.00;98084.59;4311296;33;20045;-74
2021/12/25 05:52:22;;;;;;;3.33;1.98;;;;;;;-9.27;100.00;98091.22;4309153;33;20041;-74
2021/12/25 05:54:50;;;;;;;1.92;1.33;;;;;;;-9.30;100.00;98089.72;4313970;33;20404;-75
2021/12/25 05:57:17;;;;;;;5.32;1.35;;;;;;;-9.61;100.00;98042.28;4314919;33;20054;-74
2021/12/25 05:59:44;;;;;;;2.75;1.70;;;;;;;-9.33;100.00;98092.62;4314765;33;20032;-74
2021/12/25 06:02:13;;;;;;;3.37;1.25;;;;;;;-9.34;100.00;98101.41;4314076;33;20485;-73
2021/12/25 06:04:40;;;;;;;1.98;1.00;;;;;;;-9.44;100.00;98095.41;4308558;33;20058;-74
2021/12/25 06:07:09;;;;;;;3.15;1.70;;;;;;;-9.44;100.00;98105.84;4309997;33;20056;-74
2021/12/25 06:09:35;;;;;;;9.52;2.35;;;;;;;-9.48;100.00;98104.50;4310609;33;20040;-73
2021/12/25 06:12:09;;;;;;;7.72;3.10;;;;;;;-9.95;100.00;98035.06;4310534;33;20324;-72
2021/12/25 06:14:36;;;;;;;6.25;2.08;;;;;;;-9.68;100.00;98073.34;4309145;33;20029;-73
2021/12/25 06:17:04;;;;;;;8.63;1.90;;;;;;;-9.58;100.00;98105.38;4311657;33;20351;-72
2021/12/25 06:19:31;;;;;;;3.70;1.87;;;;;;;-9.51;100.00;98114.25;4310892;33;20028;-74
2021/12/25 06:22:01;;;;;;;4.05;1.42;;;;;;;-9.63;100.00;98104.97;4311328;33;20178;-72
2021/12/25 06:24:29;;;;;;;2.50;1.83;;;;;;;-9.58;100.00;98110.56;4309922;33;20072;-74
2021/12/25 06:26:57;;;;;;;4.30;1.40;;;;;;;-9.61;100.00;98113.47;4311149;33;20048;-73
2021/12/25 06:29:24;;;;;;;8.55;2.05;;;;;;;-9.70;100.00;98101.28;4311939;33;20047;-72
2021/12/25 06:31:52;;;;;;;19.08;2.92;;;;;;;-9.91;100.00;98073.69;4311598;33;20362;-72
2021/12/25 06:34:20;;;;;;;4.28;2.47;;;;;;;-9.69;100.00;98108.16;4300988;33;20441;-73
2021/12/25 06:36:54;;;;;;;15.20;2.85;;;;;;;-9.65;100.00;98119.94;4294505;33;20049;-72
2021/12/25 06:39:21;;;;;;;4.32;2.47;;;;;;;-9.68;100.00;98128.06;4302101;33;20055;-72
2021/12/25 06:41:49;;;;;;;5.35;2.62;;;;;;;-10.04;100.00;98078.41;4296580;33;20080;-72
2021/12/25 06:44:17;;;;;;;7.10;3.08;;;;;;;-10.02;100.00;98092.09;4295665;33;20033;-73
2021/12/25 06:46:45;;;;;;;11.60;3.92;;;;;;;-9.75;100.00;98137.38;4297036;33;20052;-72
2021/12/25 06:49:12;;;;;;;4.60;2.17;;;;;;;-9.97;100.00;98109.91;4291339;33;20058;-73
2021/12/25 06:51:50;;;;;;;2.78;1.60;;;;;;;-9.86;100.00;98139.22;4301706;33;20355;-72
2021/12/25 06:54:17;;;;;;;2.60;1.42;;;;;;;-10.15;100.00;98104.59;4300714;33;20396;-73
2021/12/25 06:56:45;;;;;;;3.47;1.85;;;;;;;-9.86;100.00;98159.22;4303348;33;20070;-73
2021/12/25 06:59:13;;;;;;;2.58;1.65;;;;;;;-9.84;100.00;98164.28;4304306;33;20070;-73
2021/12/25 07:01:41;;;;;;;7.78;2.42;;;;;;;-9.87;100.00;98163.63;4306751;33;20057;-72
2021/12/25 07:04:08;;;;;;;9.07;2.20;;;;;;;-10.17;100.00;98116.97;4310752;33;20106;-75
2021/12/25 07:06:40;;;;;;;4.93;2.35;;;;;;;-10.35;100.00;98086.47;4305265;33;20174;-72
2021/12/25 07:09:08;;;;;;;4.62;2.25;;;;;;;-9.78;100.00;98171.53;4303812;33;20361;-72
2021/12/25 07:11:36;;;;;;;8.02;2.60;;;;;;;-9.78;100.00;98176.75;4310538;33;20041;-73
2021/12/25 07:14:05;;;;;;;4.37;2.45;;;;;;;-9.75;100.00;98182.50;4310287;33;20052;-74
2021/12/25 07:16:34;;;;;;;7.20;3.12;;;;;;;-9.60;100.00;98188.09;4310515;33;20049;-74
2021/12/25 07:19:06;;;;;;;6.85;3.58;;;;;;;-9.61;100.00;98191.66;4311037;33;20041;-76
2021/12/25 07:21:33;;;;;;;8.95;3.28;;;;;;;-9.92;100.00;98137.19;4297249;33;20456;-75
2021/12/25 07:24:03;;;;;;;8.63;2.87;;;;;;;-9.88;100.00;98146.34;4307029;33;20037;-75
2021/12/25 07:26:30;;;;;;;7.68;2.28;;;;;;;-9.84;100.00;98148.66;4308222;33;20061;-74
2021/12/25 07:28:56;;;;;;;14.60;3.40;;;;;;;-9.50;100.00;98201.91;4309042;33;20093;-74
2021/12/25 07:31:25;;;;;;;8.98;2.85;;;;;;;-9.65;100.00;98179.87;4310858;33;20036;-74
2021/12/25 07:33:52;;;;;;;5.72;2.55;;;;;;;-9.83;100.00;98147.69;4298150;33;20033;-74
2021/12/25 07:36:18;;;;;;;6.65;3.17;;;;;;;-9.46;100.00;98201.63;4307132;33;20076;-75
2021/12/25 07:38:45;;;;;;;10.70;3.60;;;;;;;-9.39;100.00;98210.53;4311132;33;20420;-75
2021/12/25 07:41:11;;;;;;;11.48;3.33;;;;;;;-9.41;100.00;98209.81;4294579;33;20048;-75
2021/12/25 07:43:39;;;;;;;9.88;3.03;;;;;;;-9.50;100.00;98201.91;4308093;33;20122;-74
2021/12/25 07:46:08;;;;;;;3.72;2.87;;;;;;;-9.46;100.00;98212.03;4294744;33;20110;-75
2021/12/25 07:48:35;;;;;;;9.90;3.60;;;;;;;-9.47;100.00;98215.63;4308787;33;20057;-75
2021/12/25 07:51:05;;;;;;;6.15;2.95;;;;;;;-9.38;100.00;98214.75;4308839;33;20398;-75
2021/12/25 07:53:32;;;;;;;8.45;2.72;;;;;;;-9.32;100.00;98227.22;4294599;33;20415;-74
2021/12/25 07:55:59;;;;;;;6.25;3.20;;;;;;;-9.39;100.00;98218.34;4299596;33;20055;-75
2021/12/25 07:58:26;;;;;;;5.55;2.25;;;;;;;-9.57;100.00;98184.34;4307388;33;20060;-75
2021/12/25 08:00:54;;;;;;;7.53;2.22;;;;;;;-9.23;100.00;98228.97;4311356;33;20048;-75
2021/12/25 08:03:22;;;;;;;7.30;2.60;;;;;;;-9.55;100.00;98175.44;4313668;33;20058;-76
2021/12/25 08:05:50;;;;;;;9.00;2.78;;;;;;;-9.15;100.00;98230.88;4312424;33;20059;-80
2021/12/25 08:08:17;;;;;;;9.73;2.83;;;;;;;-9.35;100.00;98204.03;4313517;33;20370;-75
2021/12/25 08:10:44;;;;;;;5.97;2.50;;;;;;;-9.25;100.00;98230.91;4313537;33;20052;-77
2021/12/25 08:13:13;;;;;;;7.78;3.05;;;;;;;-9.11;100.00;98242.66;4296892;33;20063;-75
2021/12/25 08:15:41;;;;;;;11.85;3.00;;;;;;;-9.08;100.00;98238.94;4297024;33;20347;-75
2021/12/25 08:18:09;;;;;;;6.80;2.17;;;;;;;-9.05;100.00;98247.28;4299110;33;20106;-75
2021/12/25 08:20:53;;;;;;;7.82;3.28;;;;;;;-9.05;100.00;98242.06;4297476;33;20386;-75
2021/12/25 08:23:42;;;;;;;20.75;4.65;;;;;;;-9.02;100.00;98240.97;4307894;33;20071;-75
2021/12/25 08:26:21;;;;;;;10.35;2.97;;;;;;;-8.90;100.00;98245.03;4311300;33;20053;-75
2021/12/25 08:28:50;;;;;;;7.40;3.47;;;;;;;-8.98;100.00;98244.94;4312515;33;20058;-75
2021/12/25 08:31:30;;;;;;;6.55;3.28;;;;;;;-8.93;100.00;98250.56;4300812;33;20070;-75
2021/12/25 08:34:00;;;;;;;8.95;3.22;;;;;;;-8.95;100.00;98252.47;4310363;33;20049;-74
2021/12/25 08:36:34;;;;;;;7.57;3.15;;;;;;;-8.96;100.00;98250.84;4313011;33;20057;-74
2021/12/25 08:39:04;;;;;;;9.73;3.55;;;;;;;-8.84;100.00;98265.34;4308936;33;20378;-76
2021/12/25 08:41:31;;;;;;;8.73;3.35;;;;;;;-9.06;100.00;98208.31;4304093;33;20422;-75
2021/12/25 08:44:05;;;;;;;8.10;4.07;;;;;;;-8.77;100.00;98260.34;4304166;33;20041;-75
2021/12/25 08:47:15;;;;;;;12.63;4.07;;;;;;;-8.89;100.00;98231.00;4297038;33;20614;-76
2021/12/25 08:49:25;;;;;;;17.23;4.43;;;;;;;-8.92;100.00;98213.03;4301091;33;20090;-76
2021/12/25 08:51:52;;;;;;;10.90;4.97;;;;;;;-8.91;100.00;98212.09;4296972;33;20066;-76
2021/12/25 08:54:19;;;;;;;13.75;4.50;;;;;;;-8.55;100.00;98264.34;4297347;33;20029;-75
2021/12/25 08:56:46;;;;;;;16.17;3.78;;;;;;;-8.81;100.00;98205.00;4281987;33;20041;-76
2021/12/25 08:59:19;;;;;;;15.05;4.07;;;;;;;-8.45;100.00;98259.88;4288843;33;20053;-76
2021/12/25 09:01:52;;;;;;;11.18;4.37;;;;;;;-8.77;100.00;98208.97;4299006;33;20095;-76
2021/12/25 09:04:19;;;;;;;12.40;3.47;;;;;;;-8.73;100.00;98211.28;4306207;33;20113;-77
2021/12/25 09:06:46;;;;;;;13.62;3.83;;;;;;;-8.42;100.00;98248.31;4297298;33;20065;-76
2021/12/25 09:09:13;;;;;;;9.40;3.55;;;;;;;-8.36;100.00;98260.75;4283133;33;20048;-76
2021/12/25 09:11:41;;;;;;;25.60;4.22;;;;;;;-8.28;100.00;98260.00;4285076;33;20033;-76
2021/12/25 09:14:07;;;;;;;11.12;4.35;;;;;;;-8.29;100.00;98263.59;4309965;33;20067;-77
2021/12/25 09:16:34;;;;;;;11.18;3.45;;;;;;;-8.16;100.00;98269.28;4311905;33;20398;-76
2021/12/25 09:19:02;;;;;;;13.00;4.07;;;;;;;-8.14;100.00;98271.75;4311967;33;20413;-77
2021/12/25 09:21:28;;;;;;;13.40;3.60;;;;;;;-8.01;100.00;98281.81;4312144;33;20113;-74
2021/12/25 09:23:55;;;;;;;11.93;3.22;;;;;;;-7.95;100.00;98291.66;4312555;33;20087;-75
2021/12/25 09:26:22;;;;;;;8.32;3.85;;;;;;;-8.27;100.00;98231.13;4309858;33;20052;-76
2021/12/25 09:28:49;;;;;;;15.48;4.43;;;;;;;-8.16;100.00;98237.94;4312625;33;20393;-75
2021/12/25 09:31:16;;;;;;;18.08;4.07;;;;;;;-7.95;100.00;98265.53;4310111;33;20501;-79
2021/12/25 09:33:45;;;;;;;11.88;3.95;;;;;;;-8.06;100.00;98243.91;4299739;33;20045;-79
2021/12/25 09:36:12;;;;;;;7.45;3.58;;;;;;;-7.80;100.00;98295.41;4296255;33;20041;-78
2021/12/25 09:38:38;;;;;;;17.33;4.75;;;;;;;-7.69;100.00;98292.56;4292626;33;20098;-77
2021/12/25 09:41:06;;;;;;;15.73;3.72;;;;;;;-7.75;100.00;98267.03;4310956;33;20086;-79
2021/12/25 09:43:33;;;;;;;10.95;3.75;;;;;;;-7.50;100.00;98293.34;4311161;33;20048;-79
2021/12/25 09:46:07;;;;;;;15.30;3.33;;;;;;;-8.10;100.00;98194.72;4310286;33;20378;-79
2021/12/25 09:48:35;;;;;;;22.15;4.07;;;;;;;-7.35;100.00;98299.66;4309119;33;20044;-77
2021/12/25 09:51:03;;;;;;;11.00;2.78;;;;;;;-7.31;100.00;98306.25;4310994;33;20036;-78
2021/12/25 09:53:31;;;;;;;7.85;4.12;;;;;;;-7.33;100.00;98297.69;4304796;33;20059;-77
2021/12/25 09:55:59;;;;;;;15.05;4.10;;;;;;;-7.18;100.00;98297.12;4311592;33;20088;-77
2021/12/25 09:58:25;;;;;;;19.85;7.25;;;;;;;-7.04;100.00;98299.19;4299829;33;20075;-77
2021/12/25 10:00:53;;;;;;;27.15;6.97;;;;;;;-7.30;100.00;98266.00;4300439;33;20107;-76
2021/12/25 10:03:21;;;;;;;26.55;6.00;;;;;;;-7.03;100.00;98295.59;4305638;33;20360;-76
2021/12/25 10:05:49;;;;;;;16.12;5.62;;;;;;;-7.12;100.00;98293.91;4309092;33;20172;-76
2021/12/25 10:08:25;;;;;;;20.42;6.87;;;;;;;-7.23;100.00;98286.31;4296333;33;20059;-77
2021/12/25 10:11:01;;;;;;;15.23;7.00;;;;;;;-7.07;100.00;98296.88;4295245;33;20321;-76
2021/12/25 10:13:39;;;;;;;17.45;4.80;;;;;;;-7.17;100.00;98298.78;4296974;33;20092;-77
2021/12/25 10:16:27;;;;;;;19.15;6.60;;;;;;;-7.43;100.00;98262.19;4295425;33;20072;-76
2021/12/25 10:19:10;;;;;;;17.87;6.32;;;;;;;-7.12;100.00;98299.16;4296551;33;20033;-77
2021/12/25 10:21:38;;;;;;;10.43;4.68;;;;;;;-7.59;100.00;98265.50;4294606;33;20054;-77
2021/12/25 10:24:11;;;;;;;13.48;5.45;;;;;;;-7.24;100.00;98311.69;4297416;33;20059;-77
2021/12/25 10:26:41;;;;;;;16.12;4.85;;;;;;;-7.18;100.00;98315.47;4289087;33;20068;-77
2021/12/25 10:29:29;;;;;;;15.45;5.60;;;;;;;-7.72;100.00;98219.66;4295997;33;20383;-77
2021/12/25 10:32:02;;;;;;;12.82;5.37;;;;;;;-6.98;100.00;98311.66;4311541;33;20374;-77
2021/12/25 10:34:31;;;;;;;12.27;4.72;;;;;;;-6.85;100.00;98311.22;4308039;33;20115;-77
2021/12/25 10:37:09;;;;;;;11.12;4.45;;;;;;;-6.82;100.00;98310.91;4310186;33;20256;-77
2021/12/25 10:39:35;;;;;;;16.80;4.82;;;;;;;-7.13;100.00;98276.59;4308990;33;20356;-76
2021/12/25 10:42:16;;;;;;;13.05;4.62;;;;;;;-7.01;100.00;98319.81;4302159;33;20062;-78
2021/12/25 10:44:48;;;;;;;10.52;4.85;;;;;;;-6.86;100.00;98324.47;4308001;33;20040;-76
2021/12/25 10:47:23;;;;;;;16.42;5.90;;;;;;;-6.82;100.00;98317.97;4303760;33;20049;-76
2021/12/25 10:49:58;;;;;;;11.85;4.75;;;;;;;-6.93;100.00;98293.69;4300271;33;20164;-77
2021/12/25 10:52:33;;;;;;;15.45;4.65;;;;;;;-6.74;100.00;98328.47;4297406;33;20088;-76
2021/12/25 10:55:19;;;;;;;15.65;3.70;;;;;;;-6.54;100.00;98322.97;4311014;33;20074;-76
2021/12/25 10:57:49;;;;;;;12.93;3.92;;;;;;;-6.68;100.00;98285.94;4302618;33;20037;-77
2021/12/25 11:00:19;;;;;;;12.55;4.47;;;;;;;-6.47;100.00;98318.78;4301701;33;20071;-77
2021/12/25 11:02:51;;;;;;;17.90;3.67;;;;;;;-6.51;100.00;98294.69;4289353;33;20415;-76
2021/12/25 11:05:28;;;;;;;10.15;4.47;;;;;;;-6.55;100.00;98337.06;4293676;33;20041;-76
2021/12/25 11:08:04;;;;;;;7.20;3.25;;;;;;;-6.71;100.00;98281.03;4306419;33;20033;-78
2021/12/25 11:10:39;;;;;;;9.13;3.00;;;;;;;-6.36;100.00;98326.34;4305835;33;20048;-77
2021/12/25 11:13:16;;;;;;;7.15;3.37;;;;;;;-6.27;100.00;98330.63;4299888;33;20355;-77
2021/12/25 11:15:42;;;;;;;13.20;3.30;;;;;;;-6.08;100.00;98297.25;4292794;33;20033;-78
2021/12/25 11:18:10;;;;;;;10.68;4.20;;;;;;;-5.49;100.00;98321.53;4301673;33;20066;-76
2021/12/25 11:20:40;;;;;;;12.60;3.40;;;;;;;-5.28;100.00;98293.97;4307571;33;20041;-77
2021/12/25 11:23:10;;;;;;;5.93;3.47;;;;;;;-5.22;100.00;98250.47;4285660;33;20038;-76
2021/12/25 11:25:39;;;;;;;5.75;3.47;;;;;;;-4.76;100.00;98292.69;4304272;33;20079;-76
2021/12/25 11:28:09;;;;;;;11.73;4.90;;;;;;;-4.79;100.00;98299.06;4309391;33;20431;-76
2021/12/25 11:30:50;;;;;;;7.28;3.70;;;;;;;-5.43;100.00;98264.94;4303017;33;20444;-76
2021/12/25 11:33:17;;;;;;;16.98;4.53;;;;;;;-5.51;100.00;98306.94;4291687;33;20436;-77
2021/12/25 11:35:44;;;;;;;14.50;5.90;;;;;;;-5.61;100.00;98299.22;4312817;33;20066;-80
2021/12/25 11:38:11;;;;;;;22.05;4.60;;;;;;;-5.64;100.00;98286.44;4313069;33;20377;-77
2021/12/25 11:40:45;;;;;;;12.25;4.10;;;;;;;-5.63;100.00;98254.00;4313427;33;20037;-78
2021/12/25 11:43:12;;;;;;;8.70;4.37;;;;;;;-5.54;100.00;98247.72;4310703;33;20053;-79
2021/12/25 11:45:42;;;;;;;14.68;4.82;;;;;;;-5.63;100.00;98251.38;4292012;33;20484;-77
2021/12/25 11:48:21;;;;;;;11.80;4.50;;;;;;;-5.42;100.00;98276.28;4297474;33;20037;-78
2021/12/25 11:50:53;;;;;;;17.98;4.55;;;;;;;-5.24;100.00;98295.25;4301520;33;20415;-76
2021/12/25 11:53:26;;;;;;;10.93;4.70;;;;;;;-5.38;100.00;98288.06;4308100;33;20013;-76
2021/12/25 11:56:33;;;;;;;11.10;3.85;;;;;;;-5.28;100.00;98288.72;4293436;33;20032;-77
2021/12/25 11:58:52;;;;;;;9.35;3.25;;;;;;;-5.42;100.00;98257.91;4308416;33;20037;-74
2021/12/25 12:01:38;;;;;;;13.75;5.12;;;;;;;-5.40;100.00;98295.28;4308132;33;20041;-76
2021/12/25 12:04:10;;;;;;;11.75;4.03;;;;;;;-5.38;100.00;98295.94;4307039;33;20061;-76
2021/12/25 12:06:46;;;;;;;10.48;4.82;;;;;;;-5.63;100.00;98254.00;4297925;33;20451;-75
2021/12/25 12:09:17;;;;;;;9.32;2.97;;;;;;;-5.36;100.00;98310.53;4301031;33;20489;-76
2021/12/25 12:11:50;;;;;;;12.85;3.08;;;;;;;-5.66;100.00;98265.63;4282135;33;20370;-77
2021/12/25 12:14:26;;;;;;;8.88;3.50;;;;;;;-5.42;100.00;98302.50;4280625;33;20096;-78
2021/12/25 12:17:03;;;;;;;9.23;3.47;;;;;;;-5.42;100.00;98305.94;4294256;33;20468;-77
2021/12/25 12:19:35;;;;;;;15.30;4.40;;;;;;;-5.71;100.00;98251.34;4294313;33;20049;-78
2021/12/25 12:22:18;;;;;;;9.77;3.45;;;;;;;-5.80;100.00;98268.09;4280542;33;20098;-77
2021/12/25 12:27:34;;;;;;;8.38;3.62;;;;;;;-5.50;100.00;98303.34;4292395;33;20061;-78
2021/12/25 12:30:24;;;;;;;13.85;3.87;;;;;;;-5.52;100.00;98305.28;4294674;33;20357;-78
2021/12/25 12:32:51;;;;;;;8.98;3.55;;;;;;;-5.56;100.00;98317.91;4286546;33;20065;-77
2021/12/25 12:35:34;;;;;;;13.45;4.28;;;;;;;-5.93;100.00;98279.88;4297935;33;20450;-77
2021/12/25 12:38:38;;;;;;;13.43;4.30;;;;;;;-5.61;100.00;98309.72;4283713;33;20066;-75
2021/12/25 12:41:21;;;;;;;7.50;3.45;;;;;;;-5.57;100.00;98308.41;4285727;33;20042;-76
2021/12/25 12:44:08;;;;;;;15.32;4.05;;;;;;;-5.49;100.00;98312.81;4282947;33;20045;-77
2021/12/25 12:46:51;;;;;;;16.90;4.60;;;;;;;-5.45;100.00;98318.59;4298363;33;20383;-76
2021/12/25 12:49:19;;;;;;;;;;;;;;;-5.53;100.00;98317.59;4283366;33;20056;-77
2021/12/25 12:52:16;;;;;;;9.60;4.60;;;;;;;-5.55;100.00;98330.06;4298729;33;19948;-76
2021/12/25 12:54:57;;;;;;;10.07;4.15;;;;;;;-5.61;100.00;98330.72;4296593;33;20067;-78
2021/12/25 12:57:31;;;;;;;11.48;4.32;;;;;;;-5.65;100.00;98334.63;4296860;33;20067;-78
2021/12/25 13:00:03;;;;;;;18.42;4.70;;;;;;;-5.78;100.00;98342.16;4283851;33;20049;-77